Time;durP1;ratioP1;P1;durP2;ratioP2;P2;SDS_P1;SDS_P2;PMS_P1;PMS_P2;Temp;Humidity;BMP_temperature;BMP_pressure;BME280_temperature;BME280_humidity;BME280_pressure;Samples;Min_cycle;Max_cycle;Signal;HPM_P1;HPM_P2
2023/05/08 00:02:12;;;;;;;;;;;;;;;19.13;57.99;101988.97;2318645;75;51404;-72
2023/05/08 00:05:13;;;;;;;;;;;;;;;19.12;58.00;101994.84;2350877;75;51425;-73
2023/05/08 00:08:15;;;;;;;;;;;;;;;19.11;58.01;101981.09;2318483;75;51520;-73
2023/05/08 00:11:16;;;;;;;;;;;;;;;19.13;57.89;101983.60;2318387;75;52395;-73
2023/05/08 00:14:18;;;;;;;;;;;;;;;19.13;57.86;101978.23;2344968;75;51548;-72
2023/05/08 00:17:20;;;;;;;;;;;;;;;19.12;57.84;101973.88;2329885;76;50265;-71
2023/05/08 00:20:21;;;;;;;;;;;;;;;19.12;57.83;101979.25;2337709;76;51363;-72
2023/05/08 00:23:23;;;;;;;;;;;;;;;19.11;57.88;101985.59;2311062;76;51161;-72
2023/05/08 00:26:25;;;;;;;;;;;;;;;19.11;57.86;101990.48;2340989;76;51534;-72
2023/05/08 00:29:26;;;;;;;;;;;;;;;19.10;57.87;101986.09;2341077;76;51596;-72
2023/05/08 00:32:28;;;;;;;;;;;;;;;19.11;57.80;101989.14;2341069;76;50236;-72
2023/05/08 00:35:30;;;;;;;;;;;;;;;19.10;57.76;101987.44;2337479;76;51616;-72
2023/05/08 00:38:31;;;;;;;;;;;;;;;19.11;57.73;101994.98;2337811;76;51419;-72
2023/05/08 00:41:33;;;;;;;;;;;;;;;19.12;57.70;101995.34;2341115;76;51551;-72
2023/05/08 00:44:35;;;;;;;;;;;;;;;19.10;57.75;102002.70;2335139;76;51443;-72
2023/05/08 00:47:36;;;;;;;;;;;;;;;19.10;57.71;102005.38;2329222;76;52520;-71
2023/05/08 00:50:38;;;;;;;;;;;;;;;19.10;57.66;101999.51;2341071;76;50630;-72
2023/05/08 00:53:41;;;;;;;;;;;;;;;19.10;57.65;102004.88;2341088;76;51476;-72
2023/05/08 00:56:43;;;;;;;;;;;;;;;19.09;57.68;102001.86;2341132;76;50124;-71
2023/05/08 00:59:45;;;;;;;;;;;;;;;19.08;57.66;102005.52;2284536;77;51107;-73
2023/05/08 01:02:47;;;;;;;;;;;;;;;19.09;57.71;102010.41;2275060;78;51547;-72
2023/05/08 01:05:49;;;;;;;;;;;;;;;19.07;57.68;102011.05;2274914;78;51551;-73
2023/05/08 01:08:50;;;;;;;;;;;;;;;19.09;57.66;102007.73;2275167;78;51445;-73
2023/05/08 01:11:53;;;;;;;;;;;;;;;19.07;57.72;102011.05;2278943;77;51154;-73
2023/05/08 01:15:06;;;;;;;;;;;;;;;19.05;57.76;102009.85;2260987;77;51522;-72
2023/05/08 01:18:09;;;;;;;;;;;;;;;19.07;57.74;102007.03;2288378;77;50327;-71
2023/05/08 01:21:21;;;;;;;;;;;;;;;19.07;57.67;102011.05;2275600;78;50184;-72
2023/05/08 01:24:24;;;;;;;;;;;;;;;19.08;57.62;102014.07;2275454;78;50293;-72
2023/05/08 01:27:39;;;;;;;;;;;;;;;19.07;57.60;102018.60;2232194;78;50355;-72
2023/05/08 01:30:59;;;;;;;;;;;;;;;19.07;57.64;102012.40;2275184;77;51539;-72
2023/05/08 01:34:05;;;;;;;;;;;;;;;19.07;57.69;102007.03;2274906;78;51499;-72
2023/05/08 01:37:07;;;;;;;;;;;;;;;19.07;57.65;102009.72;2275149;78;51425;-70
2023/05/08 01:40:19;;;;;;;;;;;;;;;19.04;57.67;102009.52;2242311;78;51216;-72
2023/05/08 01:43:26;;;;;;;;;;;;;;;19.05;57.63;102011.70;2275168;77;50001;-72
2023/05/08 01:46:27;;;;;;;;;;;;;;;19.05;57.42;102017.91;2287968;77;50307;-71
2023/05/08 01:49:31;;;;;;;;;;;;;;;19.06;57.52;102022.29;2313846;77;51372;-71
2023/05/08 01:52:34;;;;;;;;;;;;;;;19.04;57.54;102022.09;2313454;76;51409;-71
2023/05/08 01:55:36;;;;;;;;;;;;;;;19.04;57.54;102024.78;2313365;76;51420;-72
2023/05/08 01:58:38;;;;;;;;;;;;;;;19.06;57.46;102029.47;2313889;77;51617;-73
2023/05/08 02:01:39;;;;;;;;;;;;;;;19.07;57.44;102024.47;2303365;76;50713;-70
2023/05/08 02:04:41;;;;;;;;;;;;;;;19.06;57.49;102026.31;2301861;77;50724;-70
2023/05/08 02:07:42;;;;;;;;;;;;;;;19.07;57.49;102025.81;2301968;77;51457;-70
2023/05/08 02:10:44;;;;;;;;;;;;;;;19.05;57.52;102027.80;2302045;77;51504;-71
2023/05/08 02:13:46;;;;;;;;;;;;;;;19.04;57.52;102022.09;2301851;77;51436;-77
2023/05/08 02:16:48;;;;;;;;;;;;;;;19.04;57.49;102020.76;2295196;76;50888;-70
2023/05/08 02:19:49;;;;;;;;;;;;;;;19.04;57.48;102020.25;2302002;77;50248;-71
2023/05/08 02:22:51;;;;;;;;;;;;;;;19.04;57.45;102024.78;2302100;77;50249;-71
2023/05/08 02:25:52;;;;;;;;;;;;;;;19.03;57.42;102021.23;2266587;77;50284;-74
2023/05/08 02:28:55;;;;;;;;;;;;;;;19.03;57.37;102014.52;2267886;77;51712;-70
2023/05/08 02:31:56;;;;;;;;;;;;;;;19.02;57.37;102018.22;2269031;77;51374;-71
2023/05/08 02:34:58;;;;;;;;;;;;;;;19.02;57.37;102019.55;2305661;77;51584;-73
2023/05/08 02:37:59;;;;;;;;;;;;;;;19.03;57.32;102019.05;2305563;77;51334;-73
2023/05/08 02:41:02;;;;;;;;;;;;;;;19.01;57.31;102020.56;2269021;77;51686;-70
2023/05/08 02:44:04;;;;;;;;;;;;;;;19.00;57.28;102018.86;2270917;77;50792;-71
2023/05/08 02:47:19;;;;;;;;;;;;;;;19.00;57.29;102012.66;2307038;77;50605;-71
2023/05/08 02:50:23;;;;;;;;;;;;;;;19.01;57.31;102014.33;2304370;76;50676;-71
2023/05/08 02:53:25;;;;;;;;;;;;;;;19.02;57.27;102013.35;2280367;76;52459;-72
2023/05/08 02:56:31;;;;;;;;;;;;;;;19.01;57.28;102012.98;2306567;77;50695;-73
2023/05/08 02:59:44;;;;;;;;;;;;;;;19.01;57.25;102007.62;2306158;76;50675;-75
2023/05/08 03:03:04;;;;;;;;;;;;;;;19.01;57.20;102022.38;2302669;77;50682;-72
2023/05/08 03:06:09;;;;;;;;;;;;;;;19.00;57.19;102021.54;2303702;76;51212;-72
2023/05/08 03:09:18;;;;;;;;;;;;;;;19.00;57.16;102024.73;2302235;77;50355;-71
2023/05/08 03:12:21;;;;;;;;;;;;;;;18.99;57.14;102025.73;2303047;77;51276;-71
2023/05/08 03:15:24;;;;;;;;;;;;;;;19.01;57.10;102021.03;2313876;76;51587;-72
2023/05/08 03:18:28;;;;;;;;;;;;;;;18.99;57.09;102023.05;2266266;77;51419;-71
2023/05/08 03:21:30;;;;;;;;;;;;;;;18.99;57.05;102025.23;2301951;77;51520;-72
2023/05/08 03:24:31;;;;;;;;;;;;;;;18.98;57.04;102024.87;2301898;77;50729;-72
2023/05/08 03:27:33;;;;;;;;;;;;;;;18.98;57.04;102022.19;2302124;77;51522;-76
2023/05/08 03:30:36;;;;;;;;;;;;;;;18.97;57.05;102024.53;2302174;77;50791;-71
2023/05/08 03:33:38;;;;;;;;;;;;;;;18.98;57.02;102023.52;2300741;77;50688;-71
2023/05/08 03:36:39;;;;;;;;;;;;;;;18.98;57.01;102025.38;2301803;77;50261;-74
2023/05/08 03:39:41;;;;;;;;;;;;;;;18.95;57.05;102024.34;2301888;77;50228;-70
2023/05/08 03:42:42;;;;;;;;;;;;;;;18.97;56.99;102027.72;2282476;77;51654;-71
2023/05/08 03:45:44;;;;;;;;;;;;;;;18.97;56.96;102021.85;2313086;76;51436;-73
2023/05/08 03:48:46;;;;;;;;;;;;;;;18.97;56.94;102029.90;2310609;76;50480;-71
2023/05/08 03:51:48;;;;;;;;;;;;;;;18.96;56.94;102026.88;2301930;77;50620;-71
2023/05/08 03:54:49;;;;;;;;;;;;;;;18.95;56.98;102034.56;2291226;77;52490;-71
2023/05/08 03:58:09;;;;;;;;;;;;;;;18.96;56.96;102032.72;2301849;77;51559;-70
2023/05/08 04:01:15;;;;;;;;;;;;;;;18.96;56.98;102032.72;2301857;77;51469;-71
2023/05/08 04:04:23;;;;;;;;;;;;;;;18.95;56.89;102042.61;2301352;77;50313;-71
2023/05/08 04:07:26;;;;;;;;;;;;;;;18.97;56.92;102044.65;2265262;77;52562;-70
2023/05/08 04:10:31;;;;;;;;;;;;;;;18.96;56.92;102037.61;2301870;77;55112;-70
2023/05/08 04:13:33;;;;;;;;;;;;;;;18.97;56.88;102042.47;2301855;77;51583;-70
2023/05/08 04:16:36;;;;;;;;;;;;;;;18.97;56.84;102044.65;2309115;76;51524;-70
2023/05/08 04:19:38;;;;;;;;;;;;;;;18.96;56.86;102048.81;2303646;76;49461;-70
2023/05/08 04:22:40;;;;;;;;;;;;;;;18.94;56.86;102046.30;2301840;77;50763;-69
2023/05/08 04:25:42;;;;;;;;;;;;;;;18.95;56.88;102045.80;2301501;77;51441;-70
2023/05/08 04:28:45;;;;;;;;;;;;;;;18.93;56.73;102044.13;2301820;77;51458;-72
2023/05/08 04:31:47;;;;;;;;;;;;;;;18.92;56.88;102045.09;2265403;77;51302;-70
2023/05/08 04:34:48;;;;;;;;;;;;;;;18.92;56.85;102039.73;2301864;77;50253;-70
2023/05/08 04:37:50;;;;;;;;;;;;;;;18.96;57.04;102047.47;2301970;77;50375;-70
2023/05/08 04:40:52;;;;;;;;;;;;;;;18.97;57.51;102053.20;2301863;77;50210;-71
2023/05/08 04:43:53;;;;;;;;;;;;;;;18.98;57.22;102052.19;2291141;77;51202;-70
2023/05/08 04:50:28;;;;;;;;;;;;;;;;;;;;;
2023/05/08 04:53:27;;;;;;;;;;;;;;;19.01;57.52;102063.95;2277883;77;22479;-70
2023/05/08 04:56:35;;;;;;;;;;;;;;;19.00;57.33;102075.19;2278122;75;50765;-70
2023/05/08 04:59:44;;;;;;;;;;;;;;;19.01;57.65;102074.69;2252755;78;22684;-69
2023/05/08 05:02:57;;;;;;;;;;;;;;;;;;;;;
2023/05/08 05:19:47;;;;;;;;;;;;;;;19.55;56.95;102079.61;2349634;72;22899;-71
2023/05/08 05:50:09;;;;;;;;;;;;;;;;;;;;;
2023/05/08 05:56:56;;;;;;;;;;;;;;;20.19;55.81;102109.34;2253644;77;22255;-75
2023/05/08 06:00:05;;;;;;;;;;;;;;;20.25;55.77;102115.08;2299458;76;22704;-73
2023/05/08 06:09:49;;;;;;;;;;;;;;;;;;;;;
2023/05/08 06:16:45;;;;;;;;;;;;;;;20.45;55.07;102111.17;1997515;87;23418;-73
2023/05/08 06:19:54;;;;;;;;;;;;;;;20.45;54.90;102114.69;2025156;85;22613;-72
2023/05/08 06:23:01;;;;;;;;;;;;;;;20.45;54.79;102110.66;2040881;85;22514;-72
2023/05/08 06:30:17;;;;;;;;;;;;;;;;;;;;;
2023/05/08 06:33:40;;;;;;;;;;;;;;;;;;;;;
2023/05/08 06:53:37;;;;;;;;;;;;;;;20.57;54.17;102119.81;1967383;89;22510;-73
2023/05/08 07:13:59;;;;;;;;;;;;;;;;;;;;;
2023/05/08 07:20:25;;;;;;;;;;;;;;;;;;;;;
2023/05/08 07:23:31;;;;;;;;;;;;;;;20.60;53.59;102128.90;1898050;91;22688;-76
2023/05/08 07:30:26;;;;;;;;;;;;;;;;;;;;;
2023/05/08 07:37:17;;;;;;;;;;;;;;;;;;;;;
2023/05/08 07:43:53;;;;;;;;;;;;;;;20.62;53.20;102121.52;2120707;83;22570;-73
2023/05/08 07:54:12;;;;;;;;;;;;;;;;;;;;;
2023/05/08 08:00:26;;;;;;;;;;;;;;;20.59;53.10;102119.99;2226438;76;23512;-74
2023/05/08 08:11:18;;;;;;;;;;;;;;;;;;;;;
2023/05/08 08:21:01;;;;;;;;;;;;;;;20.52;52.89;102106.81;2237711;75;23483;-73
2023/05/08 08:38:10;;;;;;;;;;;;;;;20.43;52.88;102099.72;2093091;84;22753;-73
2023/05/08 08:45:07;;;;;;;;;;;;;;;20.36;52.91;102099.50;2096749;82;23005;-74
2023/05/08 08:54:56;;;;;;;;;;;;;;;20.30;52.99;102102.00;2208883;77;22879;-73
2023/05/08 09:08:24;;;;;;;;;;;;;;;20.21;52.93;102093.87;2085983;82;22978;-73
2023/05/08 09:11:30;;;;;;;;;;;;;;;20.19;53.01;102101.75;2066662;84;51365;-73
2023/05/08 09:41:48;;;;;;;;;;;;;;;;;;;;;
2023/05/08 09:58:21;;;;;;;;;;;;;;;19.92;53.19;102079.92;1888704;93;23564;-74
2023/05/08 10:05:04;;;;;;;;;;;;;;;19.87;53.25;102076.35;1821427;96;23242;-76
2023/05/08 10:18:34;;;;;;;;;;;;;;;19.78;53.55;102070.56;1854492;94;22613;-74
2023/05/08 10:21:59;;;;;;;;;;;;;;;19.76;53.61;102065.37;1812365;95;23235;-74
2023/05/08 10:38:47;;;;;;;;;;;;;;;;;;;;;
2023/05/08 10:58:35;;;;;;;;;;;;;;;19.77;53.33;102027.27;2030994;84;22837;-75
2023/05/08 11:02:37;;;;;;;;;;;;;;;;;;;;;
2023/05/08 11:05:27;;;;;;;;;;;;;;;;;;;;;
2023/05/08 11:08:59;;;;;;;;;;;;;;;19.76;53.42;102025.08;2089488;83;23167;-74
2023/05/08 11:33:09;;;;;;;;;;;;;;;;;;;;;
2023/05/08 11:53:32;;;;;;;;;;;;;;;19.81;52.88;101996.41;1913771;92;23859;-75
2023/05/08 11:56:41;;;;;;;;;;;;;;;19.80;52.90;102000.91;1922309;90;51695;-73
2023/05/08 12:06:50;;;;;;;;;;;;;;;19.80;52.84;102004.11;1928037;90;22854;-73
2023/05/08 12:20:30;;;;;;;;;;;;;;;19.69;53.30;101994.48;1890746;92;24052;-73
2023/05/08 12:27:14;;;;;;;;;;;;;;;19.66;53.47;101988.05;1931385;88;23999;-73
2023/05/08 12:30:31;;;;;;;;;;;;;;;;;;;;;
2023/05/08 12:33:24;;;;;;;;;;;;;;;19.69;53.41;101979.70;2071488;84;23181;-73
2023/05/08 12:36:51;;;;;;;;;;;;;;;;;;;;;
2023/05/08 12:40:03;;;;;;;;;;;;;;;19.70;53.44;101991.28;2033936;85;22580;-74
2023/05/08 12:43:36;;;;;;;;;;;;;;;;;;;;;
2023/05/08 12:49:55;;;;;;;;;;;;;;;19.71;53.50;101976.88;1944624;90;22467;-72
2023/05/08 12:56:45;;;;;;;;;;;;;;;;;;;;;
2023/05/08 13:10:03;;;;;;;;;;;;;;;19.74;53.59;101958.59;1926694;91;22729;-75
2023/05/08 13:16:48;;;;;;;;;;;;;;;19.75;53.64;101957.58;1972767;83;22623;-73
2023/05/08 13:27:00;;;;;;;;;;;;;;;19.74;53.84;101947.84;1946692;89;22839;-73
2023/05/08 13:30:19;;;;;;;;;;;;;;;;;;;;;
2023/05/08 13:33:31;;;;;;;;;;;;;;;19.75;53.89;101929.38;1942502;89;23313;-73
2023/05/08 13:40:02;;;;;;;;;;;;;;;19.76;53.96;101924.87;2006561;83;23576;-74
2023/05/08 13:43:04;;;;;;;;;;;;;;;19.76;53.96;101920.34;2027709;85;22523;-72
2023/05/08 13:49:46;;;;;;;;;;;;;;;;;;;;;
2023/05/08 13:59:44;;;;;;;;;;;;;;;19.81;54.01;101901.06;1924404;91;22455;-76
2023/05/08 14:03:05;;;;;;;;;;;;;;;19.80;54.13;101901.54;1937551;90;22666;-75
2023/05/08 14:10:01;;;;;;;;;;;;;;;;;;;;;
2023/05/08 14:13:29;;;;;;;;;;;;;;;19.83;54.20;101901.72;2106620;83;23004;-73
2023/05/08 14:29:40;;;;;;;;;;;;;;;19.92;54.11;101893.22;2221975;74;22539;-72
2023/05/08 14:33:17;;;;;;;;;;;;;;;19.91;54.13;101887.48;2259769;78;22600;-74
2023/05/08 14:39:59;;;;;;;;;;;;;;;;;;;;;
2023/05/08 14:46:40;;;;;;;;;;;;;;;19.95;54.24;101870.05;2256044;78;24360;-73
2023/05/08 14:49:59;;;;;;;;;;;;;;;19.95;54.21;101878.95;2179147;80;50234;-73
2023/05/08 14:53:27;;;;;;;;;;;;;;;;;;;;;
2023/05/08 14:59:59;;;;;;;;;;;;;;;;;;;;;
2023/05/08 15:02:54;;;;;;;;;;;;;;;20.00;54.33;101867.72;2078280;85;23267;-74
2023/05/08 15:06:07;;;;;;;;;;;;;;;20.01;54.32;101876.98;2070367;85;51574;-74
2023/05/08 15:09:30;;;;;;;;;;;;;;;20.01;54.34;101877.45;2076544;84;23586;-72
2023/05/08 15:19:31;;;;;;;;;;;;;;;;;;;;;
2023/05/08 15:22:33;;;;;;;;;;;;;;;;;;;;;
2023/05/08 15:25:30;;;;;;;;;;;;;;;20.04;54.53;101881.18;2158826;81;22624;-74
2023/05/08 15:28:45;;;;;;;;;;;;;;;;;;;;;
2023/05/08 15:31:47;;;;;;;;;;;;;;;20.04;54.57;101873.13;2170626;81;23014;-74
2023/05/08 15:42:05;;;;;;;;;;;;;;;20.06;54.66;101876.46;2182028;81;22362;-74
2023/05/08 15:48:27;;;;;;;;;;;;;;;20.07;54.73;101865.23;2169468;80;22648;-73
2023/05/08 15:51:49;;;;;;;;;;;;;;;;;;;;;
2023/05/08 15:55:02;;;;;;;;;;;;;;;20.08;54.74;101861.02;2068239;84;22689;-74
2023/05/08 15:58:22;;;;;;;;;;;;;;;20.09;54.75;101860.04;2095218;83;51223;-73
2023/05/08 16:01:47;;;;;;;;;;;;;;;;;;;;;
2023/05/08 16:05:01;;;;;;;;;;;;;;;20.11;54.75;101863.89;2063726;84;23353;-73
2023/05/08 16:08:12;;;;;;;;;;;;;;;;;;;;;
2023/05/08 16:11:25;;;;;;;;;;;;;;;20.11;54.85;101856.66;2035846;87;23042;-73
2023/05/08 16:14:29;;;;;;;;;;;;;;;20.13;54.88;101856.00;2059317;85;22730;-74
2023/05/08 16:17:43;;;;;;;;;;;;;;;20.13;54.88;101853.83;2069062;82;51545;-73
2023/05/08 16:21:00;;;;;;;;;;;;;;;20.14;54.86;101852.33;2104068;83;22396;-73
2023/05/08 16:28:00;;;;;;;;;;;;;;;;;;;;;
2023/05/08 16:34:37;;;;;;;;;;;;;;;;;;;;;
2023/05/08 17:01:23;;;;;;;;;;;;;;;20.18;55.43;101821.92;2109488;78;22751;-76
2023/05/08 17:04:25;;;;;;;;;;;;;;;20.20;55.53;101834.19;2108609;83;51547;-76
2023/05/08 17:07:27;;;;;;;;;;;;;;;20.18;55.64;101826.79;2130836;81;50663;-75
2023/05/08 17:10:28;;;;;;;;;;;;;;;20.20;55.55;101825.30;2155750;82;51544;-76
2023/05/08 17:13:31;;;;;;;;;;;;;;;;;;2166315;82;51571;-76
2023/05/08 17:16:31;;;;;;;;;;;;;;;;;;2169884;81;50422;-76
2023/05/08 17:19:33;;;;;;;;;;;;;;;20.18;56.54;101830.82;2175896;81;51680;-76
2023/05/08 17:22:34;;;;;;;;;;;;;;;20.15;56.74;101823.09;2108297;83;50713;-76
2023/05/08 17:25:36;;;;;;;;;;;;;;;20.19;57.02;101820.91;2093598;84;51617;-77
2023/05/08 17:28:38;;;;;;;;;;;;;;;20.16;57.11;101830.14;2088104;83;51809;-76
2023/05/08 17:31:39;;;;;;;;;;;;;;;20.21;57.13;101830.99;2177818;81;50760;-77
2023/05/08 17:34:41;;;;;;;;;;;;;;;20.19;57.14;101824.45;2170653;82;50186;-75
2023/05/08 17:37:42;;;;;;;;;;;;;;;20.19;57.14;101825.80;2177521;81;50750;-75
2023/05/08 17:40:44;;;;;;;;;;;;;;;20.17;56.82;101825.12;2169256;81;51809;-75
2023/05/08 17:43:46;;;;;;;;;;;;;;;20.10;56.65;101818.72;2213723;79;50706;-75
2023/05/08 17:46:47;;;;;;;;;;;;;;;20.09;56.65;101822.42;2214532;79;51487;-74
2023/05/08 17:49:49;;;;;;;;;;;;;;;20.08;56.82;101819.38;2180855;82;50715;-76
2023/05/08 17:52:50;;;;;;;;;;;;;;;20.08;56.76;101827.95;2135975;82;50149;-75
2023/05/08 17:55:52;;;;;;;;;;;;;;;20.07;56.73;101823.59;2155863;81;50869;-75
2023/05/08 17:58:54;;;;;;;;;;;;;;;20.06;56.78;101829.44;2155319;82;50070;-76
2023/05/08 18:01:59;;;;;;;;;;;;;;;20.06;56.74;101821.89;2208463;79;50795;-76
2023/05/08 18:05:01;;;;;;;;;;;;;;;20.03;56.97;101824.41;2220371;79;52634;-77
2023/05/08 18:08:03;;;;;;;;;;;;;;;20.04;56.77;101830.13;2189638;79;51522;-74
2023/05/08 18:11:04;;;;;;;;;;;;;;;20.08;56.82;101831.47;2212345;79;50319;-74
2023/05/08 18:14:06;;;;;;;;;;;;;;;20.09;56.90;101831.83;2223136;78;51653;-74
2023/05/08 18:17:09;;;;;;;;;;;;;;;20.11;56.88;101839.20;2202244;79;54110;-74
2023/05/08 18:20:11;;;;;;;;;;;;;;;20.09;57.12;101849.77;2237530;79;51629;-74
2023/05/08 18:23:12;;;;;;;;;;;;;;;20.05;57.00;101843.89;2224694;78;50363;-76
2023/05/08 18:26:14;;;;;;;;;;;;;;;20.01;56.95;101841.18;2245207;78;49831;-75
2023/05/08 18:29:16;;;;;;;;;;;;;;;19.95;56.56;101838.66;2241310;78;52644;-75
2023/05/08 18:32:17;;;;;;;;;;;;;;;19.96;56.40;101852.92;2238227;79;51704;-75
2023/05/08 18:35:20;;;;;;;;;;;;;;;19.96;56.40;101848.89;2254556;79;51477;-75
2023/05/08 18:38:22;;;;;;;;;;;;;;;19.95;56.32;101851.25;2251575;77;50667;-74
2023/05/08 18:41:23;;;;;;;;;;;;;;;19.94;56.32;101853.61;2243844;79;50074;-75
2023/05/08 18:44:25;;;;;;;;;;;;;;;19.92;56.34;101856.95;2248491;79;50656;-74
2023/05/08 18:47:26;;;;;;;;;;;;;;;19.92;56.32;101855.10;2224401;79;50702;-74
2023/05/08 18:50:28;;;;;;;;;;;;;;;19.92;56.29;101859.64;2255995;78;51396;-75
2023/05/08 18:53:29;;;;;;;;;;;;;;;19.89;56.36;101862.66;2208166;78;49609;-74
2023/05/08 18:56:33;;;;;;;;;;;;;;;19.88;56.30;101862.30;2256943;78;50081;-74
2023/05/08 18:59:37;;;;;;;;;;;;;;;19.88;56.30;101869.02;2256875;77;51621;-72
2023/05/08 19:02:39;;;;;;;;;;;;;;;19.86;56.31;101873.70;2240039;77;50431;-72
2023/05/08 19:05:41;;;;;;;;;;;;;;;19.87;56.50;101877.58;2227543;79;52509;-73
2023/05/08 19:08:43;;;;;;;;;;;;;;;19.90;56.73;101877.76;2223581;78;50716;-73
2023/05/08 19:11:45;;;;;;;;;;;;;;;19.90;56.93;101879.94;2251852;79;51667;-73
2023/05/08 19:14:47;;;;;;;;;;;;;;;19.92;57.04;101882.47;2250464;79;51499;-72
2023/05/08 19:17:51;;;;;;;;;;;;;;;19.91;57.02;101878.95;2200632;79;52570;-73
2023/05/08 19:20:52;;;;;;;;;;;;;;;19.91;57.04;101875.40;2222167;77;22287;-72
2023/05/08 19:23:54;;;;;;;;;;;;;;;19.92;57.20;101879.28;2219337;79;50280;-75
2023/05/08 19:26:59;;;;;;;;;;;;;;;19.92;57.23;101882.47;2249964;79;50225;-74
2023/05/08 19:30:00;;;;;;;;;;;;;;;19.90;57.25;101882.62;2227622;79;51447;-73
2023/05/08 19:33:02;;;;;;;;;;;;;;;19.91;57.32;101879.42;2244770;77;50609;-73
2023/05/08 19:36:03;;;;;;;;;;;;;;;19.90;57.36;101877.76;2181058;80;51426;-74
2023/05/08 19:39:05;;;;;;;;;;;;;;;19.90;57.34;101877.25;2191395;78;51383;-74
2023/05/08 19:42:09;;;;;;;;;;;;;;;19.91;57.38;101879.42;2236949;78;51133;-74
2023/05/08 19:45:10;;;;;;;;;;;;;;;19.90;57.43;101877.25;2245736;77;22389;-75
2023/05/08 19:48:12;;;;;;;;;;;;;;;19.93;57.59;101872.05;2221885;79;50473;-74
2023/05/08 19:51:15;;;;;;;;;;;;;;;19.95;57.48;101880.80;2189683;77;50258;-74
2023/05/08 19:54:16;;;;;;;;;;;;;;;19.94;57.43;101871.91;2244864;79;51540;-74
2023/05/08 19:57:18;;;;;;;;;;;;;;;19.96;57.34;101874.41;2255686;77;52471;-73
2023/05/08 20:00:20;;;;;;;;;;;;;;;19.96;57.34;101879.78;2225270;79;50245;-74
2023/05/08 20:03:21;;;;;;;;;;;;;;;19.98;57.25;101876.44;2219069;79;50282;-75
2023/05/08 20:06:23;;;;;;;;;;;;;;;19.99;57.11;101878.14;2209509;79;49613;-74
2023/05/08 20:09:24;;;;;;;;;;;;;;;20.00;57.07;101884.67;2232413;79;50624;-74
2023/05/08 20:12:26;;;;;;;;;;;;;;;20.02;57.00;101895.27;2211862;79;50245;-74
2023/05/08 20:15:28;;;;;;;;;;;;;;;20.03;56.99;101889.39;2229230;79;50328;-74
2023/05/08 20:18:29;;;;;;;;;;;;;;;20.03;56.93;101898.28;2194545;79;51871;-73
2023/05/08 20:21:32;;;;;;;;;;;;;;;20.01;56.81;101893.09;2200596;80;51544;-73
2023/05/08 20:24:34;;;;;;;;;;;;;;;20.05;56.91;101893.59;2192240;80;50310;-72
2023/05/08 20:27:35;;;;;;;;;;;;;;;20.05;57.05;101890.08;2198058;80;50064;-75
2023/05/08 20:30:37;;;;;;;;;;;;;;;20.07;56.96;101890.77;2200276;79;50811;-76
2023/05/08 20:33:39;;;;;;;;;;;;;;;20.07;57.02;101894.28;2205336;80;50371;-76
2023/05/08 20:36:40;;;;;;;;;;;;;;;20.07;56.97;101890.25;2203293;79;51414;-76
2023/05/08 20:39:42;;;;;;;;;;;;;;;20.08;56.95;101895.95;2190462;80;51459;-75
2023/05/08 20:42:43;;;;;;;;;;;;;;;20.09;56.88;101889.59;2203589;79;50713;-75
2023/05/08 20:45:45;;;;;;;;;;;;;;;20.07;56.94;101880.85;2196480;80;51404;-74
2023/05/08 20:48:46;;;;;;;;;;;;;;;20.07;56.83;101883.54;2184668;80;52404;-74
2023/05/08 20:51:48;;;;;;;;;;;;;;;20.08;56.77;101885.20;2182490;81;51501;-75
2023/05/08 20:54:50;;;;;;;;;;;;;;;20.08;56.73;101882.52;2163883;81;51153;-74
2023/05/08 20:57:51;;;;;;;;;;;;;;;20.07;56.75;101880.85;2186828;80;50284;-74
2023/05/08 21:00:53;;;;;;;;;;;;;;;20.09;56.72;101884.22;2187545;81;50725;-73
2023/05/08 21:03:54;;;;;;;;;;;;;;;20.09;56.69;101884.22;2247063;79;52290;-75
2023/05/08 21:06:57;;;;;;;;;;;;;;;20.09;56.61;101883.36;2255419;79;50933;-74
2023/05/08 21:09:59;;;;;;;;;;;;;;;20.08;56.65;101887.89;2232539;78;50284;-74
2023/05/08 21:13:00;;;;;;;;;;;;;;;20.06;56.43;101885.03;2275421;77;50219;-73
2023/05/08 21:16:03;;;;;;;;;;;;;;;20.02;56.47;101885.87;2230572;77;50366;-72
2023/05/08 21:19:04;;;;;;;;;;;;;;;19.99;56.51;101882.17;2177655;80;50988;-73
2023/05/08 21:22:08;;;;;;;;;;;;;;;19.98;56.47;101883.16;2200544;79;51544;-72
2023/05/08 21:25:09;;;;;;;;;;;;;;;19.98;56.40;101879.12;2226247;79;50029;-72
2023/05/08 21:28:11;;;;;;;;;;;;;;;19.97;56.42;101881.48;2225867;80;50660;-72
2023/05/08 21:31:12;;;;;;;;;;;;;;;19.95;56.45;101879.45;2177422;80;53034;-72
2023/05/08 21:34:15;;;;;;;;;;;;;;;19.92;56.51;101874.41;2200637;80;51399;-72
2023/05/08 21:37:16;;;;;;;;;;;;;;;19.92;56.53;101875.76;2200722;80;50664;-73
2023/05/08 21:40:18;;;;;;;;;;;;;;;19.92;56.49;101869.05;2200423;80;50656;-73
2023/05/08 21:43:20;;;;;;;;;;;;;;;19.95;56.38;101855.28;2179875;80;51280;-72
2023/05/08 21:46:21;;;;;;;;;;;;;;;19.95;56.31;101857.45;2266270;77;50698;-73
2023/05/08 21:49:23;;;;;;;;;;;;;;;19.95;56.27;101860.66;2265078;78;50338;-73
2023/05/08 21:52:25;;;;;;;;;;;;;;;19.96;56.23;101862.32;2265142;78;50727;-73
2023/05/08 21:55:26;;;;;;;;;;;;;;;19.94;56.28;101866.53;2266779;78;52468;-72
2023/05/08 21:58:28;;;;;;;;;;;;;;;19.94;56.24;101860.33;2238091;78;51484;-73
2023/05/08 22:01:30;;;;;;;;;;;;;;;19.92;56.25;101859.13;2265010;78;50138;-72
2023/05/08 22:04:32;;;;;;;;;;;;;;;19.90;56.27;101861.13;2249631;78;51675;-73
2023/05/08 22:07:33;;;;;;;;;;;;;;;19.90;56.27;101855.76;2199758;79;52437;-72
2023/05/08 22:10:35;;;;;;;;;;;;;;;19.89;56.28;101853.25;2223319;79;51437;-72
2023/05/08 22:13:37;;;;;;;;;;;;;;;19.87;56.32;101852.06;2223210;79;50432;-76
2023/05/08 22:16:38;;;;;;;;;;;;;;;19.87;56.32;101854.75;2249694;79;50231;-72
2023/05/08 22:19:40;;;;;;;;;;;;;;;19.87;56.38;101849.88;2212741;78;50863;-72
2023/05/08 22:22:41;;;;;;;;;;;;;;;19.86;56.31;101852.21;2239895;79;50264;-73
2023/05/08 22:25:43;;;;;;;;;;;;;;;19.85;56.31;101847.34;2249066;79;51463;-72
2023/05/08 22:28:45;;;;;;;;;;;;;;;19.86;56.32;101849.05;2238023;79;50374;-73
2023/05/08 22:31:46;;;;;;;;;;;;;;;19.84;56.40;101850.22;2212405;79;49525;-73
2023/05/08 22:34:48;;;;;;;;;;;;;;;19.83;56.42;101847.17;2249652;79;50371;-73
2023/05/08 22:37:51;;;;;;;;;;;;;;;19.81;56.41;101843.32;2235488;78;51530;-73
2023/05/08 22:40:55;;;;;;;;;;;;;;;19.82;56.39;101844.16;2232436;78;50275;-73
2023/05/08 22:43:56;;;;;;;;;;;;;;;19.82;56.37;101836.09;2220076;79;23104;-73
2023/05/08 22:46:58;;;;;;;;;;;;;;;19.80;56.38;101841.11;2211965;80;50237;-73
2023/05/08 22:49:59;;;;;;;;;;;;;;;19.80;56.38;101829.53;2211717;79;50634;-72
2023/05/08 22:53:06;;;;;;;;;;;;;;;19.81;56.34;101836.61;2213539;80;50628;-72
2023/05/08 22:56:04;;;;;;;;;;;;;;;19.78;56.37;101833.74;2211349;80;22996;-73
2023/05/08 22:59:06;;;;;;;;;;;;;;;19.78;56.31;101828.84;2213011;80;50716;-73
2023/05/08 23:02:07;;;;;;;;;;;;;;;19.79;56.34;101822.49;2214330;80;51459;-73
2023/05/08 23:05:09;;;;;;;;;;;;;;;19.78;56.39;101819.45;2214192;80;50685;-73
2023/05/08 23:08:10;;;;;;;;;;;;;;;19.76;56.46;101815.60;2190242;80;51164;-73
2023/05/08 23:11:12;;;;;;;;;;;;;;;19.78;56.37;101818.97;2215522;79;50219;-73
2023/05/08 23:14:14;;;;;;;;;;;;;;;19.75;56.48;101809.87;2237275;79;50596;-72
2023/05/08 23:17:15;;;;;;;;;;;;;;;19.77;56.37;101816.44;2248890;79;51660;-73
2023/05/08 23:20:17;;;;;;;;;;;;;;;19.76;56.34;101807.55;2252902;79;51177;-73
2023/05/08 23:23:18;;;;;;;;;;;;;;;19.76;56.35;101800.83;2251333;78;50646;-73
2023/05/08 23:26:21;;;;;;;;;;;;;;;19.75;56.39;101797.78;2250581;79;50624;-73
2023/05/08 23:29:22;;;;;;;;;;;;;;;19.75;56.37;101800.98;2249307;79;49931;-73
2023/05/08 23:32:24;;;;;;;;;;;;;;;19.75;56.38;101798.30;2223943;79;51660;-72
2023/05/08 23:35:25;;;;;;;;;;;;;;;19.75;56.36;101793.76;2251034;78;51549;-72
2023/05/08 23:38:27;;;;;;;;;;;;;;;19.74;56.38;101792.59;2248879;79;51592;-71
2023/05/08 23:41:29;;;;;;;;;;;;;;;19.74;56.35;101792.59;2249012;79;51679;-73
2023/05/08 23:44:30;;;;;;;;;;;;;;;19.73;56.32;101785.05;2232628;78;52680;-73
2023/05/08 23:47:32;;;;;;;;;;;;;;;19.72;56.33;101783.34;2208689;79;51428;-73
2023/05/08 23:50:34;;;;;;;;;;;;;;;19.73;56.33;101785.52;2246848;79;50740;-73
2023/05/08 23:53:35;;;;;;;;;;;;;;;19.73;56.32;101786.39;2223320;79;51418;-73